Airfield :







YOU CAN JOIN US ON...

 
LOGIN :

Register | Disclaimer

   EN    FR    IT 

 









Legend :    VFR   Marginal VFR   IFR   Intensive IFR   Very Intensive IFR
Visi :
Ceiling :
>= 8 km
>= 3000ft
5 to 8 km
1000 to 3000 ft
1500m to 5 km
500 to 1000 ft
800 to 1500m
200 to 500 ft
< 800m
< 200 ft
Symbols :   Thunderstorms  Fog  Heavy snow  Heavy precipitations  Wind > 20 kt






- Airport Elevation : 92 ft
- IATA code : YZX


CYZX - CFB Greenwood

CURRENT METAR :
  • 161812Z 24013G18KT 6SM -SHSN BKN017 OVC030 01/00 A3002 RMK SC6SC2 SLP168

EXPIRED METARs :
  • 161800Z 25014G19KT 10SM SCT014 OVC030 01/00 A3002 RMK SC3SC5 VIS LWR N SLP167
  • 161745Z 23014G21KT 12SM -SHSN SCT012 OVC030 01/00 A3002 RMK SC3SC5 SLP168
  • 161711Z 25012KT 3SM -SHSN BKN011 OVC020 01/01 A3003 RMK SC7SC1 VIS VRB 2-4 SLP170
  • 161700Z 25012KT 2 1/4SM -SHSN BKN012 OVC020 01/00 A3003 RMK SC7SC1 SLP170
  • 161649Z 24012G18KT 2 1/4SM -SHSN BKN013 OVC020 01/00 A3003 RMK SC6SC2 SLP170
  • 161600Z 23013KT 3SM -SHSN BKN017 OVC035 01/00 A3005 RMK SC7SC1 VIS VRB 2-4 SLP176

TAF TAF CYZX
Valid from the 16 at 18:00 until the 17 at 18:00 UTC


161730Z 1618/1718 25012KT 2SM -SHSN BKN012 OVC020
BECMG 1618/1619 P6SM NSW OVC030
FM161900 24010KT P6SM OVC030
TEMPO 1619/1703 P6SM -SHSN OVC020
FM170300 VRB03KT P6SM -SHSN OVC015
FM170600 VRB03KT 6SM BR BKN008 OVC015
FM171000 VRB03KT P6SM SCT008 BKN240
FM171500 25008KT P6SM BKN025 RMK NXT FCST BY 170000Z



MET'MAP, your aeronautical weather chart ! - Copyright ORBIFLY December 2007 - Disclaimer

ORBIFLY MET'MAP TEAM :

Programming & Development : Alexandra Zaïnal
Concept & original design : Baudouin d'Aumeries
Assistance for programming : Marc-Olivier Méhu
Technical & hardware support : Manuel Goepfert

Contact : metmap@orbifly.com




SOURCES & CREDITS :

   NOAA